sensor_id;sensor_type;location;lat;lon;timestamp;pressure;altitude;pressure_sealevel;temperature;humidity
77003;BME280;65939;50.060;14.288;2023-01-29T00:01:42;98339.72;;;-2.98;76.65
77003;BME280;65939;50.060;14.288;2023-01-29T00:03:42;98336.44;;;-3.02;76.16
77003;BME280;65939;50.060;14.288;2023-01-29T00:05:43;98337.41;;;-3.06;75.82
77003;BME280;65939;50.060;14.288;2023-01-29T00:07:44;98337.50;;;-3.09;76.27
77003;BME280;65939;50.060;14.288;2023-01-29T00:09:45;98330.69;;;-3.10;75.84
77003;BME280;65939;50.060;14.288;2023-01-29T00:11:45;98333.13;;;-3.05;76.02
77003;BME280;65939;50.060;14.288;2023-01-29T00:13:46;98335.69;;;-3.05;75.95
77003;BME280;65939;50.060;14.288;2023-01-29T00:15:54;98338.28;;;-3.07;76.30
77003;BME280;65939;50.060;14.288;2023-01-29T00:17:55;98328.19;;;-3.11;76.22
77003;BME280;65939;50.060;14.288;2023-01-29T00:19:56;98340.97;;;-3.11;76.31
77003;BME280;65939;50.060;14.288;2023-01-29T00:21:56;98332.41;;;-3.10;76.30
77003;BME280;65939;50.060;14.288;2023-01-29T00:23:58;98321.22;;;-3.06;76.44
77003;BME280;65939;50.060;14.288;2023-01-29T00:25:59;98322.72;;;-2.99;76.54
77003;BME280;65939;50.060;14.288;2023-01-29T00:27:59;98324.25;;;-2.94;76.34
77003;BME280;65939;50.060;14.288;2023-01-29T00:30:00;98319.94;;;-2.92;75.16
77003;BME280;65939;50.060;14.288;2023-01-29T00:32:13;98322.50;;;-2.92;74.64
77003;BME280;65939;50.060;14.288;2023-01-29T00:34:14;98323.44;;;-2.94;74.93
77003;BME280;65939;50.060;14.288;2023-01-29T00:36:16;98333.72;;;-2.97;74.95
77003;BME280;65939;50.060;14.288;2023-01-29T00:38:17;98328.81;;;-3.03;75.48
77003;BME280;65939;50.060;14.288;2023-01-29T00:40:18;98332.19;;;-3.03;75.36
77003;BME280;65939;50.060;14.288;2023-01-29T00:42:18;98333.06;;;-3.04;75.73
77003;BME280;65939;50.060;14.288;2023-01-29T00:44:38;98344.22;;;-3.06;75.86
77003;BME280;65939;50.060;14.288;2023-01-29T00:46:57;98331.59;;;-3.11;75.89
77003;BME280;65939;50.060;14.288;2023-01-29T00:48:58;98323.97;;;-3.13;76.15
77003;BME280;65939;50.060;14.288;2023-01-29T00:50:59;98330.75;;;-3.11;76.44
77003;BME280;65939;50.060;14.288;2023-01-29T00:53:00;98335.94;;;-3.15;76.32
77003;BME280;65939;50.060;14.288;2023-01-29T00:55:02;98330.03;;;-3.17;76.68
77003;BME280;65939;50.060;14.288;2023-01-29T00:57:03;98336.00;;;-3.16;76.85
77003;BME280;65939;50.060;14.288;2023-01-29T00:59:03;98334.22;;;-3.14;76.63
77003;BME280;65939;50.060;14.288;2023-01-29T01:01:04;98335.03;;;-3.12;77.04
77003;BME280;65939;50.060;14.288;2023-01-29T01:03:05;98321.38;;;-3.11;77.01
77003;BME280;65939;50.060;14.288;2023-01-29T01:05:06;98318.66;;;-3.06;76.97
77003;BME280;65939;50.060;14.288;2023-01-29T01:07:09;98312.63;;;-3.04;76.89
77003;BME280;65939;50.060;14.288;2023-01-29T01:09:10;98300.59;;;-2.99;77.14
77003;BME280;65939;50.060;14.288;2023-01-29T01:11:29;98301.31;;;-2.95;76.36
77003;BME280;65939;50.060;14.288;2023-01-29T01:13:33;98303.00;;;-2.94;76.14
77003;BME280;65939;50.060;14.288;2023-01-29T01:15:36;98299.53;;;-2.93;76.36
77003;BME280;65939;50.060;14.288;2023-01-29T01:17:37;98301.94;;;-2.89;76.32
77003;BME280;65939;50.060;14.288;2023-01-29T01:19:38;98305.38;;;-2.88;76.42
77003;BME280;65939;50.060;14.288;2023-01-29T01:21:38;98300.19;;;-2.86;76.48
77003;BME280;65939;50.060;14.288;2023-01-29T01:23:39;98296.66;;;-2.82;76.41
77003;BME280;65939;50.060;14.288;2023-01-29T01:25:40;98293.94;;;-2.78;76.15
77003;BME280;65939;50.060;14.288;2023-01-29T01:27:41;98300.66;;;-2.74;76.26
77003;BME280;65939;50.060;14.288;2023-01-29T01:29:41;98298.88;;;-2.72;75.70
77003;BME280;65939;50.060;14.288;2023-01-29T01:31:42;98304.81;;;-2.71;76.06
77003;BME280;65939;50.060;14.288;2023-01-29T01:33:42;98303.97;;;-2.72;75.59
77003;BME280;65939;50.060;14.288;2023-01-29T01:35:43;98303.16;;;-2.72;75.64
77003;BME280;65939;50.060;14.288;2023-01-29T01:37:44;98301.44;;;-2.72;75.93
77003;BME280;65939;50.060;14.288;2023-01-29T01:39:44;98300.50;;;-2.69;75.87
77003;BME280;65939;50.060;14.288;2023-01-29T01:41:48;98306.34;;;-2.66;75.75
77003;BME280;65939;50.060;14.288;2023-01-29T01:43:52;98308.00;;;-2.65;75.88
77003;BME280;65939;50.060;14.288;2023-01-29T01:45:53;98300.34;;;-2.65;75.73
77003;BME280;65939;50.060;14.288;2023-01-29T01:48:09;98298.63;;;-2.64;76.07
77003;BME280;65939;50.060;14.288;2023-01-29T01:52:22;98302.88;;;-2.63;75.29
77003;BME280;65939;50.060;14.288;2023-01-29T01:54:27;98298.63;;;-2.64;75.55
77003;BME280;65939;50.060;14.288;2023-01-29T01:56:34;98299.50;;;-2.65;75.30
77003;BME280;65939;50.060;14.288;2023-01-29T01:58:43;98305.56;;;-2.68;75.50
77003;BME280;65939;50.060;14.288;2023-01-29T02:00:46;98293.72;;;-2.70;75.45
77003;BME280;65939;50.060;14.288;2023-01-29T02:02:47;98292.13;;;-2.74;75.50
77003;BME280;65939;50.060;14.288;2023-01-29T02:05:07;98289.00;;;-2.82;75.42
77003;BME280;65939;50.060;14.288;2023-01-29T02:07:28;98289.22;;;-2.90;75.38
77003;BME280;65939;50.060;14.288;2023-01-29T02:09:58;98285.84;;;-2.91;76.04
77003;BME280;65939;50.060;14.288;2023-01-29T02:12:09;98279.84;;;-2.90;76.16
77003;BME280;65939;50.060;14.288;2023-01-29T02:14:11;98283.19;;;-2.87;76.19
77003;BME280;65939;50.060;14.288;2023-01-29T02:16:11;98280.56;;;-2.84;76.29
77003;BME280;65939;50.060;14.288;2023-01-29T02:18:16;98279.56;;;-2.80;76.29
77003;BME280;65939;50.060;14.288;2023-01-29T02:20:28;98276.13;;;-2.79;76.17
77003;BME280;65939;50.060;14.288;2023-01-29T02:30:29;98280.50;;;-2.83;75.91
77003;BME280;65939;50.060;14.288;2023-01-29T02:32:59;98284.88;;;-2.86;76.36
77003;BME280;65939;50.060;14.288;2023-01-29T02:35:18;98288.22;;;-2.84;75.92
77003;BME280;65939;50.060;14.288;2023-01-29T02:37:34;98286.50;;;-2.84;76.17
77003;BME280;65939;50.060;14.288;2023-01-29T02:39:59;98288.22;;;-2.84;75.77
77003;BME280;65939;50.060;14.288;2023-01-29T02:44:43;98287.41;;;-2.86;75.64
77003;BME280;65939;50.060;14.288;2023-01-29T02:47:13;98289.97;;;-2.86;75.54
77003;BME280;65939;50.060;14.288;2023-01-29T02:49:32;98296.84;;;-2.89;75.86
77003;BME280;65939;50.060;14.288;2023-01-29T02:51:45;98293.41;;;-2.87;76.00
77003;BME280;65939;50.060;14.288;2023-01-29T02:54:06;98303.63;;;-2.87;75.86
77003;BME280;65939;50.060;14.288;2023-01-29T02:56:16;98297.63;;;-2.86;75.88
77003;BME280;65939;50.060;14.288;2023-01-29T02:58:30;98302.81;;;-2.88;75.96
77003;BME280;65939;50.060;14.288;2023-01-29T03:00:37;98308.94;;;-2.94;75.77
77003;BME280;65939;50.060;14.288;2023-01-29T03:02:50;98308.19;;;-2.97;75.88
77003;BME280;65939;50.060;14.288;2023-01-29T03:04:59;98318.56;;;-3.02;75.60
77003;BME280;65939;50.060;14.288;2023-01-29T03:07:09;98317.84;;;-3.07;76.10
77003;BME280;65939;50.060;14.288;2023-01-29T03:09:40;98312.88;;;-3.11;76.13
77003;BME280;65939;50.060;14.288;2023-01-29T03:11:48;98312.13;;;-3.15;76.02
77003;BME280;65939;50.060;14.288;2023-01-29T03:14:11;98310.59;;;-3.21;76.32
77003;BME280;65939;50.060;14.288;2023-01-29T03:16:21;98313.38;;;-3.28;75.87
77003;BME280;65939;50.060;14.288;2023-01-29T03:18:30;98314.47;;;-3.37;75.65
77003;BME280;65939;50.060;14.288;2023-01-29T03:20:38;98313.72;;;-3.41;75.71
77003;BME280;65939;50.060;14.288;2023-01-29T03:22:57;98306.00;;;-3.38;75.85
77003;BME280;65939;50.060;14.288;2023-01-29T03:25:02;98306.69;;;-3.32;76.18
77003;BME280;65939;50.060;14.288;2023-01-29T03:27:27;98307.44;;;-3.29;75.81
77003;BME280;65939;50.060;14.288;2023-01-29T03:29:51;98302.25;;;-3.26;75.96
77003;BME280;65939;50.060;14.288;2023-01-29T03:32:15;98301.41;;;-3.26;75.96
77003;BME280;65939;50.060;14.288;2023-01-29T03:34:23;98302.97;;;-3.22;75.93
77003;BME280;65939;50.060;14.288;2023-01-29T03:36:40;98300.44;;;-3.22;75.39
77003;BME280;65939;50.060;14.288;2023-01-29T03:38:45;98297.78;;;-3.19;75.84
77003;BME280;65939;50.060;14.288;2023-01-29T03:40:59;98299.44;;;-3.18;75.14
77003;BME280;65939;50.060;14.288;2023-01-29T03:43:12;98302.00;;;-3.18;75.08
77003;BME280;65939;50.060;14.288;2023-01-29T03:45:30;98293.44;;;-3.17;74.88
77003;BME280;65939;50.060;14.288;2023-01-29T03:47:57;98298.53;;;-3.16;75.49
77003;BME280;65939;50.060;14.288;2023-01-29T03:50:19;98295.91;;;-3.14;75.25
77003;BME280;65939;50.060;14.288;2023-01-29T03:52:34;98297.69;;;-3.16;75.10
77003;BME280;65939;50.060;14.288;2023-01-29T03:56:59;98294.59;;;-3.27;74.58
77003;BME280;65939;50.060;14.288;2023-01-29T03:59:32;98293.84;;;-3.31;75.24
77003;BME280;65939;50.060;14.288;2023-01-29T04:01:52;98302.38;;;-3.30;75.41
77003;BME280;65939;50.060;14.288;2023-01-29T04:04:10;98302.38;;;-3.30;75.01
77003;BME280;65939;50.060;14.288;2023-01-29T04:06:17;98299.78;;;-3.29;75.49
77003;BME280;65939;50.060;14.288;2023-01-29T04:08:26;98290.38;;;-3.28;75.71
77003;BME280;65939;50.060;14.288;2023-01-29T04:10:28;98292.09;;;-3.29;75.58
77003;BME280;65939;50.060;14.288;2023-01-29T04:12:37;98296.41;;;-3.31;75.60
77003;BME280;65939;50.060;14.288;2023-01-29T04:14:40;98295.63;;;-3.33;75.85
77003;BME280;65939;50.060;14.288;2023-01-29T04:16:46;98296.53;;;-3.34;75.69
77003;BME280;65939;50.060;14.288;2023-01-29T04:18:48;98283.75;;;-3.34;75.53
77003;BME280;65939;50.060;14.288;2023-01-29T04:20:50;98281.25;;;-3.35;75.53
77003;BME280;65939;50.060;14.288;2023-01-29T04:22:51;98282.06;;;-3.35;76.16
77003;BME280;65939;50.060;14.288;2023-01-29T04:24:52;98276.94;;;-3.33;75.75
77003;BME280;65939;50.060;14.288;2023-01-29T04:31:40;98273.56;;;-3.35;76.12
77003;BME280;65939;50.060;14.288;2023-01-29T04:36:16;98271.31;;;-3.45;75.63
77003;BME280;65939;50.060;14.288;2023-01-29T04:43:04;98261.41;;;-3.55;75.18
77003;BME280;65939;50.060;14.288;2023-01-29T04:45:43;98263.97;;;-3.55;75.39
77003;BME280;65939;50.060;14.288;2023-01-29T04:57:08;98251.00;;;-3.49;73.92
77003;BME280;65939;50.060;14.288;2023-01-29T04:59:27;98256.03;;;-3.46;73.54
77003;BME280;65939;50.060;14.288;2023-01-29T05:01:32;98262.03;;;-3.47;73.83
77003;BME280;65939;50.060;14.288;2023-01-29T05:03:37;98261.09;;;-3.45;74.76
77003;BME280;65939;50.060;14.288;2023-01-29T05:05:43;98255.94;;;-3.43;74.40
77003;BME280;65939;50.060;14.288;2023-01-29T05:07:46;98257.56;;;-3.41;74.34
77003;BME280;65939;50.060;14.288;2023-01-29T05:09:49;98236.19;;;-3.37;74.33
77003;BME280;65939;50.060;14.288;2023-01-29T05:11:51;98239.38;;;-3.30;74.59
77003;BME280;65939;50.060;14.288;2023-01-29T05:13:53;98232.47;;;-3.26;74.41
77003;BME280;65939;50.060;14.288;2023-01-29T05:16:07;98231.47;;;-3.22;74.07
77003;BME280;65939;50.060;14.288;2023-01-29T05:18:09;98232.22;;;-3.19;73.61
77003;BME280;65939;50.060;14.288;2023-01-29T05:20:10;98225.41;;;-3.18;73.41
77003;BME280;65939;50.060;14.288;2023-01-29T05:22:15;98228.78;;;-3.18;73.38
77003;BME280;65939;50.060;14.288;2023-01-29T05:24:22;98229.59;;;-3.17;73.29
77003;BME280;65939;50.060;14.288;2023-01-29T05:26:23;98225.31;;;-3.15;73.42
77003;BME280;65939;50.060;14.288;2023-01-29T05:28:42;98238.06;;;-3.15;72.76
77003;BME280;65939;50.060;14.288;2023-01-29T05:30:46;98238.91;;;-3.15;72.64
77003;BME280;65939;50.060;14.288;2023-01-29T05:32:47;98235.59;;;-3.18;72.92
77003;BME280;65939;50.060;14.288;2023-01-29T05:34:47;98235.56;;;-3.17;73.07
77003;BME280;65939;50.060;14.288;2023-01-29T05:36:48;98237.16;;;-3.13;72.91
77003;BME280;65939;50.060;14.288;2023-01-29T05:38:49;98237.88;;;-3.09;72.86
77003;BME280;65939;50.060;14.288;2023-01-29T05:40:50;98232.72;;;-3.07;73.27
77003;BME280;65939;50.060;14.288;2023-01-29T05:42:51;98225.03;;;-3.06;73.05
77003;BME280;65939;50.060;14.288;2023-01-29T05:44:51;98220.78;;;-3.07;72.83
77003;BME280;65939;50.060;14.288;2023-01-29T05:46:52;98231.00;;;-3.07;72.59
77003;BME280;65939;50.060;14.288;2023-01-29T05:48:52;98227.59;;;-3.06;73.00
77003;BME280;65939;50.060;14.288;2023-01-29T05:50:58;98230.13;;;-3.06;72.84
77003;BME280;65939;50.060;14.288;2023-01-29T05:53:00;98231.81;;;-3.06;72.29
77003;BME280;65939;50.060;14.288;2023-01-29T05:55:00;98226.69;;;-3.05;72.61
77003;BME280;65939;50.060;14.288;2023-01-29T05:57:01;98223.16;;;-3.01;72.59
77003;BME280;65939;50.060;14.288;2023-01-29T05:59:02;98219.72;;;-3.00;72.73
77003;BME280;65939;50.060;14.288;2023-01-29T06:01:17;98216.31;;;-3.00;72.79
77003;BME280;65939;50.060;14.288;2023-01-29T06:03:18;98206.06;;;-2.99;72.57
77003;BME280;65939;50.060;14.288;2023-01-29T06:05:19;98203.44;;;-2.97;72.80
77003;BME280;65939;50.060;14.288;2023-01-29T06:07:20;98194.03;;;-2.95;73.01
77003;BME280;65939;50.060;14.288;2023-01-29T06:09:20;98194.78;;;-2.92;72.60
77003;BME280;65939;50.060;14.288;2023-01-29T06:11:21;98196.44;;;-2.91;72.22
77003;BME280;65939;50.060;14.288;2023-01-29T06:13:22;98183.66;;;-2.91;72.77
77003;BME280;65939;50.060;14.288;2023-01-29T06:15:22;98182.75;;;-2.90;72.54
77003;BME280;65939;50.060;14.288;2023-01-29T06:17:25;98179.53;;;-2.95;72.44
77003;BME280;65939;50.060;14.288;2023-01-29T06:19:26;98184.66;;;-2.95;72.25
77003;BME280;65939;50.060;14.288;2023-01-29T06:21:26;98182.84;;;-2.93;72.11
77003;BME280;65939;50.060;14.288;2023-01-29T06:23:27;98176.97;;;-2.95;72.03
77003;BME280;65939;50.060;14.288;2023-01-29T06:25:28;98182.94;;;-2.96;72.34
77003;BME280;65939;50.060;14.288;2023-01-29T06:27:28;98186.41;;;-2.97;72.23
77003;BME280;65939;50.060;14.288;2023-01-29T06:29:29;98191.47;;;-2.95;72.17
77003;BME280;65939;50.060;14.288;2023-01-29T06:31:30;98183.81;;;-2.95;72.38
77003;BME280;65939;50.060;14.288;2023-01-29T06:33:31;98188.81;;;-2.92;73.08
77003;BME280;65939;50.060;14.288;2023-01-29T06:35:31;98185.47;;;-2.94;72.77
77003;BME280;65939;50.060;14.288;2023-01-29T06:37:32;98190.53;;;-2.93;73.05
77003;BME280;65939;50.060;14.288;2023-01-29T06:39:33;98191.25;;;-2.89;72.73
77003;BME280;65939;50.060;14.288;2023-01-29T06:41:34;98190.41;;;-2.88;72.60
77003;BME280;65939;50.060;14.288;2023-01-29T06:43:34;98188.75;;;-2.91;72.82
77003;BME280;65939;50.060;14.288;2023-01-29T06:45:35;98186.13;;;-2.87;72.86
77003;BME280;65939;50.060;14.288;2023-01-29T06:47:35;98185.13;;;-2.83;73.11
77003;BME280;65939;50.060;14.288;2023-01-29T06:49:36;98185.88;;;-2.81;73.01
77003;BME280;65939;50.060;14.288;2023-01-29T06:51:36;98189.25;;;-2.79;72.93
77003;BME280;65939;50.060;14.288;2023-01-29T06:53:38;98187.50;;;-2.79;72.54
77003;BME280;65939;50.060;14.288;2023-01-29T06:55:39;98193.44;;;-2.77;72.76
77003;BME280;65939;50.060;14.288;2023-01-29T06:57:39;98187.34;;;-2.74;73.24
77003;BME280;65939;50.060;14.288;2023-01-29T06:59:40;98194.16;;;-2.73;72.63
77003;BME280;65939;50.060;14.288;2023-01-29T07:01:41;98194.91;;;-2.71;72.65
77003;BME280;65939;50.060;14.288;2023-01-29T07:03:43;98191.50;;;-2.70;72.53
77003;BME280;65939;50.060;14.288;2023-01-29T07:05:50;98195.72;;;-2.69;72.97
77003;BME280;65939;50.060;14.288;2023-01-29T07:07:52;98199.94;;;-2.68;72.70
77003;BME280;65939;50.060;14.288;2023-01-29T07:09:52;98204.13;;;-2.66;72.58
77003;BME280;65939;50.060;14.288;2023-01-29T07:11:53;98217.63;;;-2.62;72.98
77003;BME280;65939;50.060;14.288;2023-01-29T07:13:53;98221.00;;;-2.61;73.06
77003;BME280;65939;50.060;14.288;2023-01-29T07:15:58;98226.03;;;-2.58;73.50
77003;BME280;65939;50.060;14.288;2023-01-29T07:18:01;98222.66;;;-2.59;72.98
77003;BME280;65939;50.060;14.288;2023-01-29T07:20:04;98225.09;;;-2.56;72.79
77003;BME280;65939;50.060;14.288;2023-01-29T07:22:05;98226.75;;;-2.55;73.08
77003;BME280;65939;50.060;14.288;2023-01-29T07:24:06;98231.03;;;-2.55;72.65
77003;BME280;65939;50.060;14.288;2023-01-29T07:26:07;98224.25;;;-2.56;72.59
77003;BME280;65939;50.060;14.288;2023-01-29T07:28:08;98239.63;;;-2.58;73.02
77003;BME280;65939;50.060;14.288;2023-01-29T07:30:09;98251.53;;;-2.57;72.87
77003;BME280;65939;50.060;14.288;2023-01-29T07:32:10;98247.38;;;-2.59;72.26
77003;BME280;65939;50.060;14.288;2023-01-29T07:34:10;98252.41;;;-2.58;72.59
77003;BME280;65939;50.060;14.288;2023-01-29T07:36:12;98261.66;;;-2.54;72.67
77003;BME280;65939;50.060;14.288;2023-01-29T07:38:12;98264.19;;;-2.52;72.87
77003;BME280;65939;50.060;14.288;2023-01-29T07:40:13;98251.53;;;-2.57;72.79
77003;BME280;65939;50.060;14.288;2023-01-29T07:42:14;98252.41;;;-2.58;72.40
77003;BME280;65939;50.060;14.288;2023-01-29T07:44:14;98251.41;;;-2.52;72.92
77003;BME280;65939;50.060;14.288;2023-01-29T07:46:15;98246.97;;;-2.47;73.00
77003;BME280;65939;50.060;14.288;2023-01-29T07:48:15;98240.81;;;-2.42;73.02
77003;BME280;65939;50.060;14.288;2023-01-29T07:50:16;98248.34;;;-2.38;72.67
77003;BME280;65939;50.060;14.288;2023-01-29T07:52:17;98257.66;;;-2.36;72.36
77003;BME280;65939;50.060;14.288;2023-01-29T07:54:18;98252.50;;;-2.34;72.42
77003;BME280;65939;50.060;14.288;2023-01-29T07:56:19;98263.69;;;-2.38;72.47
77003;BME280;65939;50.060;14.288;2023-01-29T07:58:19;98263.66;;;-2.37;72.98
77003;BME280;65939;50.060;14.288;2023-01-29T08:00:20;98267.34;;;-2.46;72.25
77003;BME280;65939;50.060;14.288;2023-01-29T08:02:21;98276.84;;;-2.49;72.64
77003;BME280;65939;50.060;14.288;2023-01-29T08:04:21;98278.38;;;-2.44;72.72
77003;BME280;65939;50.060;14.288;2023-01-29T08:06:22;98282.66;;;-2.44;72.74
77003;BME280;65939;50.060;14.288;2023-01-29T08:08:22;98285.38;;;-2.49;72.51
77003;BME280;65939;50.060;14.288;2023-01-29T08:10:23;98290.09;;;-2.63;72.45
77003;BME280;65939;50.060;14.288;2023-01-29T08:12:24;98296.97;;;-2.65;72.63
77003;BME280;65939;50.060;14.288;2023-01-29T08:14:24;98297.69;;;-2.61;73.28
77003;BME280;65939;50.060;14.288;2023-01-29T08:16:25;98305.28;;;-2.58;72.85
77003;BME280;65939;50.060;14.288;2023-01-29T08:18:26;98302.88;;;-2.63;72.86
77003;BME280;65939;50.060;14.288;2023-01-29T08:20:27;98300.59;;;-2.72;72.41
77003;BME280;65939;50.060;14.288;2023-01-29T08:22:28;98301.66;;;-2.79;72.83
77003;BME280;65939;50.060;14.288;2023-01-29T08:24:28;98293.13;;;-2.78;72.86
77003;BME280;65939;50.060;14.288;2023-01-29T08:26:29;98293.91;;;-2.76;72.81
77003;BME280;65939;50.060;14.288;2023-01-29T08:28:29;98289.47;;;-2.71;72.86
77003;BME280;65939;50.060;14.288;2023-01-29T08:30:32;98288.31;;;-2.61;72.96
77003;BME280;65939;50.060;14.288;2023-01-29T08:32:33;98288.06;;;-2.53;72.49
77003;BME280;65939;50.060;14.288;2023-01-29T08:34:34;98277.69;;;-2.49;72.84
77003;BME280;65939;50.060;14.288;2023-01-29T08:36:35;98292.88;;;-2.44;72.12
77003;BME280;65939;50.060;14.288;2023-01-29T08:38:35;98287.84;;;-2.47;71.92
77003;BME280;65939;50.060;14.288;2023-01-29T08:40:36;98287.03;;;-2.48;72.11
77003;BME280;65939;50.060;14.288;2023-01-29T08:42:37;98274.50;;;-2.55;71.69
77003;BME280;65939;50.060;14.288;2023-01-29T08:44:37;98282.91;;;-2.52;72.19
77003;BME280;65939;50.060;14.288;2023-01-29T08:46:38;98273.50;;;-2.51;71.93
77003;BME280;65939;50.060;14.288;2023-01-29T08:48:40;98273.59;;;-2.54;71.86
77003;BME280;65939;50.060;14.288;2023-01-29T08:50:40;98277.06;;;-2.55;71.35
77003;BME280;65939;50.060;14.288;2023-01-29T08:52:41;98283.19;;;-2.61;71.33
77003;BME280;65939;50.060;14.288;2023-01-29T08:54:42;98278.25;;;-2.66;71.22
77003;BME280;65939;50.060;14.288;2023-01-29T08:56:42;98276.44;;;-2.63;71.06
77003;BME280;65939;50.060;14.288;2023-01-29T08:58:43;98285.72;;;-2.59;71.45
77003;BME280;65939;50.060;14.288;2023-01-29T09:00:44;98287.31;;;-2.57;71.17
77003;BME280;65939;50.060;14.288;2023-01-29T09:02:44;98274.50;;;-2.55;70.73
77003;BME280;65939;50.060;14.288;2023-01-29T09:04:45;98280.34;;;-2.52;71.21
77003;BME280;65939;50.060;14.288;2023-01-29T09:06:45;98275.06;;;-2.47;70.45
77003;BME280;65939;50.060;14.288;2023-01-29T09:08:46;98268.22;;;-2.45;70.08
77003;BME280;65939;50.060;14.288;2023-01-29T09:10:47;98262.09;;;-2.41;70.30
77003;BME280;65939;50.060;14.288;2023-01-29T09:12:48;98265.47;;;-2.41;70.12
77003;BME280;65939;50.060;14.288;2023-01-29T09:14:48;98273.88;;;-2.37;70.31
77003;BME280;65939;50.060;14.288;2023-01-29T09:16:49;98274.41;;;-2.27;70.32
77003;BME280;65939;50.060;14.288;2023-01-29T09:18:49;98270.03;;;-2.24;70.14
77003;BME280;65939;50.060;14.288;2023-01-29T09:20:52;98273.38;;;-2.22;69.82
77003;BME280;65939;50.060;14.288;2023-01-29T09:22:53;98270.53;;;-2.14;69.90
77003;BME280;65939;50.060;14.288;2023-01-29T09:24:55;98266.97;;;-2.10;69.43
77003;BME280;65939;50.060;14.288;2023-01-29T09:26:56;98264.31;;;-2.07;69.15
77003;BME280;65939;50.060;14.288;2023-01-29T09:28:57;98266.66;;;-2.01;69.54
77003;BME280;65939;50.060;14.288;2023-01-29T09:31:01;98265.47;;;-1.90;69.20
77003;BME280;65939;50.060;14.288;2023-01-29T09:33:06;98265.19;;;-1.83;68.86
77003;BME280;65939;50.060;14.288;2023-01-29T09:35:07;98260.59;;;-1.73;68.70
77003;BME280;65939;50.060;14.288;2023-01-29T09:37:08;98265.50;;;-1.67;68.49
77003;BME280;65939;50.060;14.288;2023-01-29T09:39:09;98268.81;;;-1.65;68.29
77003;BME280;65939;50.060;14.288;2023-01-29T09:45:32;98265.69;;;-1.73;68.57
77003;BME280;65939;50.060;14.288;2023-01-29T09:47:34;98276.78;;;-1.73;67.94
77003;BME280;65939;50.060;14.288;2023-01-29T09:49:40;98287.22;;;-1.79;67.79
77003;BME280;65939;50.060;14.288;2023-01-29T09:51:48;98278.59;;;-1.76;68.40
77003;BME280;65939;50.060;14.288;2023-01-29T09:54:05;98282.53;;;-1.67;67.89
77003;BME280;65939;50.060;14.288;2023-01-29T09:56:20;98282.41;;;-1.63;68.03
77003;BME280;65939;50.060;14.288;2023-01-29T09:58:34;98272.53;;;-1.50;67.96
77003;BME280;65939;50.060;14.288;2023-01-29T10:00:53;98263.91;;;-1.48;67.49
77003;BME280;65939;50.060;14.288;2023-01-29T10:03:30;98255.81;;;-1.37;67.17
77003;BME280;65939;50.060;14.288;2023-01-29T10:10:37;98224.31;;;-0.95;67.37
77003;BME280;65939;50.060;14.288;2023-01-29T10:17:53;98200.81;;;-0.84;66.36
77003;BME280;65939;50.060;14.288;2023-01-29T10:27:15;98201.50;;;-0.40;66.67
77003;BME280;65939;50.060;14.288;2023-01-29T10:29:19;98206.47;;;-0.35;66.05
77003;BME280;65939;50.060;14.288;2023-01-29T10:33:44;98203.94;;;-0.37;66.86
77003;BME280;65939;50.060;14.288;2023-01-29T10:35:52;98200.03;;;-0.25;66.48
77003;BME280;65939;50.060;14.288;2023-01-29T10:38:01;98198.09;;;-0.20;66.31
77003;BME280;65939;50.060;14.288;2023-01-29T10:40:27;98190.78;;;-0.09;65.82
77003;BME280;65939;50.060;14.288;2023-01-29T10:42:39;98184.25;;;-0.16;65.46
77003;BME280;65939;50.060;14.288;2023-01-29T10:45:19;98188.22;;;-0.29;65.43
77003;BME280;65939;50.060;14.288;2023-01-29T10:47:57;98178.53;;;-0.22;65.58
77003;BME280;65939;50.060;14.288;2023-01-29T10:50:24;98177.94;;;-0.09;66.01
77003;BME280;65939;50.060;14.288;2023-01-29T10:54:54;98176.06;;;0.14;66.38
77003;BME280;65939;50.060;14.288;2023-01-29T10:59:59;98152.66;;;0.39;65.94
77003;BME280;65939;50.060;14.288;2023-01-29T11:01:58;98152.88;;;0.53;65.97
77003;BME280;65939;50.060;14.288;2023-01-29T11:04:02;98154.19;;;0.62;65.55
77003;BME280;65939;50.060;14.288;2023-01-29T11:06:17;98156.19;;;0.55;64.49
77003;BME280;65939;50.060;14.288;2023-01-29T11:08:24;98146.09;;;0.33;64.27
77003;BME280;65939;50.060;14.288;2023-01-29T11:10:32;98143.81;;;0.27;64.29
77003;BME280;65939;50.060;14.288;2023-01-29T11:12:37;98141.94;;;0.12;64.40
77003;BME280;65939;50.060;14.288;2023-01-29T11:14:50;98137.22;;;0.03;64.37
77003;BME280;65939;50.060;14.288;2023-01-29T11:16:52;98138.25;;;-0.02;64.92
77003;BME280;65939;50.060;14.288;2023-01-29T11:19:00;98137.56;;;0.14;65.06
77003;BME280;65939;50.060;14.288;2023-01-29T11:21:03;98137.72;;;0.30;65.49
77003;BME280;65939;50.060;14.288;2023-01-29T11:23:04;98136.75;;;0.50;66.02
77003;BME280;65939;50.060;14.288;2023-01-29T11:25:18;98128.34;;;0.65;65.19
77003;BME280;65939;50.060;14.288;2023-01-29T11:27:24;98129.63;;;0.74;65.02
77003;BME280;65939;50.060;14.288;2023-01-29T11:31:35;98128.13;;;0.69;63.59
77003;BME280;65939;50.060;14.288;2023-01-29T11:33:36;98121.16;;;0.54;63.51
77003;BME280;65939;50.060;14.288;2023-01-29T11:35:37;98118.03;;;0.47;64.12
77003;BME280;65939;50.060;14.288;2023-01-29T11:37:40;98113.19;;;0.41;63.69
77003;BME280;65939;50.060;14.288;2023-01-29T11:39:44;98108.53;;;0.31;63.79
77003;BME280;65939;50.060;14.288;2023-01-29T11:42:01;98113.06;;;0.26;63.86
77003;BME280;65939;50.060;14.288;2023-01-29T11:44:18;98113.75;;;0.29;64.06
77003;BME280;65939;50.060;14.288;2023-01-29T11:46:18;98104.19;;;0.33;64.00
77003;BME280;65939;50.060;14.288;2023-01-29T11:48:22;98102.16;;;0.39;64.96
77003;BME280;65939;50.060;14.288;2023-01-29T11:50:30;98103.06;;;0.56;65.60
77003;BME280;65939;50.060;14.288;2023-01-29T11:52:36;98096.97;;;0.58;64.92
77003;BME280;65939;50.060;14.288;2023-01-29T11:54:56;98086.09;;;0.70;65.34
77003;BME280;65939;50.060;14.288;2023-01-29T11:56:59;98080.28;;;0.84;65.08
77003;BME280;65939;50.060;14.288;2023-01-29T11:59:01;98074.53;;;0.97;64.89
77003;BME280;65939;50.060;14.288;2023-01-29T12:01:05;98068.19;;;1.04;64.42
77003;BME280;65939;50.060;14.288;2023-01-29T12:05:18;98057.50;;;1.11;64.79
77003;BME280;65939;50.060;14.288;2023-01-29T12:07:21;98049.69;;;1.13;64.86